Time;durP1;ratioP1;P1;durP2;ratioP2;P2;SDS_P1;SDS_P2;PMS_P1;PMS_P2;Temp;Humidity;BMP_temperature;BMP_pressure;BME280_temperature;BME280_humidity;BME280_pressure;Samples;Min_cycle;Max_cycle;Signal;HPM_P1;HPM_P2
2021/05/07 00:00:11;;;;;;;7.75;7.15;;;8.30;99.90;;;8.52;71.23;100712.56;5054531;28;20037;-76
2021/05/07 00:02:38;;;;;;;7.38;6.75;;;8.30;99.90;;;8.53;71.01;100706.44;5054855;28;20530;-76
2021/05/07 00:05:07;;;;;;;8.25;6.88;;;8.20;99.90;;;8.41;71.12;100687.97;5054721;28;20083;-76
2021/05/07 00:07:34;;;;;;;7.95;7.30;;;8.30;99.90;;;8.55;71.54;100702.03;5054663;28;20045;-76
2021/05/07 00:10:02;;;;;;;10.40;7.85;;;8.30;99.90;;;8.42;71.02;100706.41;5053074;28;20048;-76
2021/05/07 00:12:29;;;;;;;9.63;8.65;;;8.20;99.90;;;8.54;70.65;100702.91;5054850;28;20044;-76
2021/05/07 00:14:57;;;;;;;8.63;7.93;;;8.20;99.90;;;8.55;70.59;100699.41;5053137;28;20428;-76
2021/05/07 00:17:25;;;;;;;8.43;7.50;;;8.30;99.90;;;8.55;70.32;100689.75;5054302;28;20045;-76
2021/05/07 00:19:52;;;;;;;7.75;7.13;;;8.30;99.90;;;8.62;70.63;100694.13;5054391;28;20041;-76
2021/05/07 00:22:20;;;;;;;8.23;7.55;;;8.30;99.90;;;8.67;70.34;100691.50;5054284;28;20044;-76
2021/05/07 00:24:48;;;;;;;8.35;7.65;;;8.30;99.90;;;8.69;69.97;100685.34;5054456;28;20378;-76
2021/05/07 00:27:17;;;;;;;8.02;7.18;;;8.40;99.90;;;8.72;69.24;100682.72;5052788;28;20135;-76
2021/05/07 00:29:46;;;;;;;9.93;8.50;;;8.50;99.90;;;8.64;69.31;100681.84;5054304;28;20139;-76
2021/05/07 00:32:13;;;;;;;9.45;8.50;;;8.40;99.90;;;8.70;69.88;100686.22;5054066;28;20414;-76
2021/05/07 00:34:42;;;;;;;8.18;7.47;;;8.40;99.90;;;8.67;69.58;100699.44;5053978;28;20397;-76
2021/05/07 00:37:10;;;;;;;9.70;8.63;;;8.40;99.90;;;8.63;68.85;100709.06;5053920;28;20049;-76
2021/05/07 00:39:37;;;;;;;12.55;9.90;;;8.40;99.90;;;8.80;68.15;100714.34;5052550;28;20045;-76
2021/05/07 00:42:06;;;;;;;10.50;9.50;;;8.50;99.90;;;8.90;68.44;100716.13;5053726;28;20045;-76
2021/05/07 00:44:34;;;;;;;15.93;10.43;;;8.60;99.90;;;8.90;67.62;100711.69;5052741;28;20041;-76
2021/05/07 00:47:04;;;;;;;12.25;10.80;;;8.70;99.90;;;8.92;67.58;100709.09;5052555;28;20045;-76
2021/05/07 00:49:35;;;;;;;11.73;10.55;;;8.70;99.90;;;8.94;67.16;100709.97;5086130;28;20044;-76
2021/05/07 00:52:07;;;;;;;10.77;9.77;;;8.70;99.90;;;8.89;67.00;100709.97;5052444;28;20037;-76
2021/05/07 00:54:34;;;;;;;12.50;10.48;;;8.70;99.90;;;8.53;67.80;100682.72;5052341;28;20410;-76
2021/05/07 00:57:03;;;;;;;12.05;10.55;;;8.50;99.90;;;8.60;67.64;100685.34;5068658;28;20072;-76
2021/05/07 00:59:31;;;;;;;13.40;10.27;;;8.50;99.90;;;8.84;67.83;100708.22;5052312;28;20471;-76
2021/05/07 01:01:59;;;;;;;11.80;10.60;;;8.50;99.90;;;8.87;67.96;100703.81;5068944;28;20045;-76
2021/05/07 01:04:27;;;;;;;11.05;9.95;;;8.60;99.90;;;8.64;68.65;100702.03;5053380;28;20079;-76
2021/05/07 01:06:55;;;;;;;11.20;10.00;;;8.40;99.90;;;8.23;70.27;100673.84;5053313;28;20520;-76
2021/05/07 01:09:23;;;;;;;12.90;11.60;;;8.10;99.90;;;8.37;70.10;100696.72;5085770;28;20456;-76
2021/05/07 01:11:51;;;;;;;12.77;11.38;;;8.10;99.90;;;8.39;70.59;100697.63;5053431;28;20041;-76
2021/05/07 01:14:18;;;;;;;12.77;11.48;;;8.10;99.90;;;8.37;70.39;100694.09;5053430;28;20041;-76
2021/05/07 01:16:46;;;;;;;12.70;11.50;;;8.10;99.90;;;8.29;71.03;100687.94;5051963;28;20041;-76
2021/05/07 01:19:14;;;;;;;13.63;11.98;;;7.90;99.90;;;8.35;71.28;100683.56;5053104;28;20053;-76
2021/05/07 01:21:44;;;;;;;16.42;12.68;;;8.00;99.90;;;8.38;70.95;100685.34;5067827;28;20048;-76
2021/05/07 01:24:13;;;;;;;;;;;8.10;99.90;;;8.38;70.63;100682.69;5052346;28;20041;-76
2021/05/07 01:26:41;;;;;;;15.75;11.77;;;8.10;99.90;;;8.46;70.61;100675.69;5068550;28;19920;-76
2021/05/07 01:29:11;;;;;;;13.63;12.32;;;8.20;99.90;;;8.58;69.98;100680.94;5051765;28;20052;-76
2021/05/07 01:31:44;;;;;;;13.77;11.93;;;8.20;99.90;;;8.59;70.26;100680.97;5051704;28;20433;-77
2021/05/07 01:34:11;;;;;;;13.98;12.48;;;8.30;99.90;;;8.53;71.63;100673.06;5068255;28;20482;-76
2021/05/07 01:36:39;;;;;;;13.50;12.10;;;8.30;99.90;;;8.45;72.14;100676.56;5068491;28;20040;-76
2021/05/07 01:39:08;;;;;;;13.80;12.40;;;8.20;99.90;;;8.64;71.72;100676.56;5052948;28;20068;-76
2021/05/07 01:41:36;;;;;;;14.68;12.85;;;8.30;99.90;;;8.62;71.34;100678.31;5052967;28;20136;-75
2021/05/07 01:44:05;;;;;;;15.30;13.55;;;8.40;99.90;;;8.57;71.32;100669.53;5052914;28;20123;-76
2021/05/07 01:46:34;;;;;;;15.48;13.55;;;8.30;99.90;;;8.58;71.45;100651.94;5052707;28;20513;-76
2021/05/07 01:49:02;;;;;;;17.10;13.90;;;8.40;99.90;;;8.86;71.39;100673.06;5068315;28;20043;-75
2021/05/07 01:51:29;;;;;;;16.02;13.80;;;8.60;99.90;;;8.95;70.55;100673.03;5051537;28;20045;-76
2021/05/07 01:54:00;;;;;;;15.18;13.13;;;8.60;99.90;;;9.12;70.71;100675.63;5051605;28;20045;-76
2021/05/07 01:56:29;;;;;;;14.43;12.95;;;8.80;99.90;;;9.17;70.82;100668.63;5051288;28;20569;-76
2021/05/07 01:58:56;;;;;;;14.98;13.27;;;8.90;99.90;;;8.60;70.50;100557.94;5067962;28;20049;-76
2021/05/07 02:01:24;;;;;;;13.43;12.02;;;9.00;99.90;;;9.36;70.00;100674.72;5051255;28;20053;-76
2021/05/07 02:03:56;;;;;;;12.63;10.70;;;9.10;99.90;;;9.41;69.54;100680.84;5068206;28;20052;-76
2021/05/07 02:06:35;;;;;;;9.20;8.30;;;9.20;99.90;;;9.54;68.60;100670.25;5051511;28;20123;-76
2021/05/07 02:09:03;;;;;;;12.98;8.85;;;9.30;99.90;;;9.61;67.73;100687.84;5068019;28;20045;-76
2021/05/07 02:11:32;;;;;;;11.15;7.47;;;9.40;99.90;;;9.56;67.49;100688.75;5051052;28;20448;-76
2021/05/07 02:14:05;;;;;;;6.07;5.47;;;9.40;99.90;;;9.35;67.93;100726.63;5051470;28;20057;-76
2021/05/07 02:16:32;;;;;;;7.72;6.28;;;9.20;99.90;;;9.19;67.30;100771.50;5051307;28;20425;-76
2021/05/07 02:19:04;;;;;;;6.95;5.78;;;9.10;99.90;;;8.62;69.61;100796.06;5052494;28;20048;-76
2021/05/07 02:21:31;;;;;;;6.88;5.60;;;8.60;99.90;;;8.63;70.21;100780.25;5052552;28;20060;-76
2021/05/07 02:23:59;;;;;;;8.55;6.35;;;8.60;99.90;;;8.37;70.61;100759.97;5052425;28;20095;-75
2021/05/07 02:26:27;;;;;;;7.35;5.63;;;8.40;99.90;;;8.45;70.57;100779.34;5051304;28;20091;-74
2021/05/07 02:29:04;;;;;;;5.88;5.38;;;8.40;99.90;;;7.53;71.95;100661.34;5052557;28;20052;-74
2021/05/07 02:31:31;;;;;;;6.47;5.85;;;8.10;99.90;;;8.19;71.69;100781.84;5051752;28;20139;-74
2021/05/07 02:33:59;;;;;;;9.15;5.97;;;8.10;99.90;;;8.19;71.56;100780.09;5055071;28;20417;-75
2021/05/07 02:36:26;;;;;;;10.63;5.75;;;8.10;99.90;;;8.13;72.14;100776.56;5056293;28;20053;-74
2021/05/07 02:38:54;;;;;;;7.03;5.60;;;8.00;99.90;;;8.11;71.53;100781.81;5055959;28;20037;-73
2021/05/07 02:41:24;;;;;;;6.47;5.45;;;8.00;99.90;;;7.96;71.19;100794.94;5055128;28;20055;-72
2021/05/07 02:43:51;;;;;;;7.32;6.20;;;7.90;99.90;;;7.92;70.83;100803.69;5054989;28;20057;-72
2021/05/07 02:46:31;;;;;;;7.72;6.28;;;7.80;99.90;;;7.88;71.56;100798.38;5054817;28;20045;-72
2021/05/07 02:48:59;;;;;;;7.28;6.13;;;7.70;99.90;;;7.87;71.80;100794.88;5056121;28;20053;-72
2021/05/07 02:51:27;;;;;;;7.20;6.60;;;7.70;99.90;;;7.88;71.83;100790.47;5055900;28;20043;-72
2021/05/07 02:53:55;;;;;;;7.57;5.85;;;7.70;99.90;;;7.90;71.80;100791.38;5054662;28;20128;-72
2021/05/07 02:56:23;;;;;;;6.75;5.45;;;7.80;99.90;;;7.72;72.21;100768.50;5055981;28;20504;-73
2021/05/07 02:58:50;;;;;;;8.73;7.10;;;7.70;99.90;;;7.83;72.26;100806.28;5054497;28;20055;-72
2021/05/07 03:01:18;;;;;;;7.32;6.13;;;7.70;99.90;;;7.63;72.60;100768.41;5055801;28;20136;-72
2021/05/07 03:03:47;;;;;;;6.43;5.82;;;7.70;99.90;;;7.82;72.57;100808.91;5055659;28;20049;-72
2021/05/07 03:06:14;;;;;;;7.20;6.35;;;7.70;99.90;;;7.82;72.40;100807.13;5055919;28;20076;-72
2021/05/07 03:08:42;;;;;;;7.00;6.30;;;7.70;99.90;;;7.77;72.30;100811.50;5056030;28;20060;-72
2021/05/07 03:11:10;;;;;;;6.90;6.30;;;7.70;99.90;;;7.77;72.17;100816.78;5055797;28;20045;-72
2021/05/07 03:13:37;;;;;;;6.63;6.03;;;7.70;99.90;;;7.67;71.77;100817.56;5055593;28;20048;-72
2021/05/07 03:16:05;;;;;;;6.77;6.17;;;7.60;99.90;;;7.66;71.76;100815.84;5055452;28;20072;-72
2021/05/07 03:18:33;;;;;;;5.90;5.40;;;7.50;99.90;;;7.65;71.82;100819.31;5055290;28;20049;-72
2021/05/07 03:21:01;;;;;;;6.80;6.30;;;7.60;99.90;;;7.68;71.92;100823.72;5055594;28;20091;-72
2021/05/07 03:23:28;;;;;;;7.03;6.47;;;7.50;99.90;;;7.67;71.93;100820.22;5055364;28;20045;-72
2021/05/07 03:25:56;;;;;;;6.53;5.88;;;7.60;99.90;;;7.58;71.49;100809.63;5055419;28;20045;-72
2021/05/07 03:28:23;;;;;;;7.32;6.70;;;7.50;99.90;;;7.62;71.90;100819.31;5055288;28;20098;-72
2021/05/07 03:30:51;;;;;;;7.10;6.40;;;7.50;99.90;;;7.64;72.16;100822.84;5053841;28;20060;-72
2021/05/07 03:33:18;;;;;;;6.63;6.03;;;7.50;99.90;;;7.63;72.16;100817.53;5055432;28;20041;-72
2021/05/07 03:35:46;;;;;;;6.22;5.63;;;7.50;99.90;;;7.70;71.98;100822.88;5055285;28;20049;-72
2021/05/07 03:38:14;;;;;;;6.75;6.05;;;7.60;99.90;;;7.36;71.30;100815.59;5055207;28;20452;-72
2021/05/07 03:40:42;;;;;;;8.07;6.33;;;7.40;99.90;;;5.65;75.25;100798.81;5055101;28;20072;-72
2021/05/07 03:43:09;;;;;;;7.27;6.77;;;6.00;99.90;;;6.22;76.76;100816.22;5054899;28;20486;-72
2021/05/07 03:45:36;;;;;;;7.10;6.60;;;6.00;99.90;;;6.55;76.06;100818.34;5053359;28;20498;-72
2021/05/07 03:48:14;;;;;;;7.53;6.83;;;6.30;99.90;;;6.68;75.37;100827.28;5054887;28;20071;-72
2021/05/07 03:50:42;;;;;;;6.77;6.17;;;6.50;99.90;;;6.50;75.08;100832.31;5054818;28;20567;-72
2021/05/07 03:53:10;;;;;;;7.97;7.23;;;6.40;99.90;;;6.58;75.72;100842.03;5054763;28;20053;-72
2021/05/07 03:55:39;;;;;;;7.37;6.73;;;6.40;99.90;;;6.66;75.69;100829.84;5054750;28;20056;-72
2021/05/07 03:58:07;;;;;;;7.87;7.17;;;6.60;99.90;;;6.95;75.06;100859.94;5054911;28;20171;-72
2021/05/07 04:00:35;;;;;;;8.03;7.10;;;6.70;99.90;;;7.05;74.59;100869.69;5054792;28;20385;-72
2021/05/07 04:03:04;;;;;;;7.47;6.77;;;6.90;99.90;;;7.12;74.29;100878.53;5054760;28;20057;-72
2021/05/07 04:05:32;;;;;;;8.47;7.67;;;7.00;99.90;;;7.16;74.13;100886.44;5054624;28;20490;-72
2021/05/07 04:08:06;;;;;;;8.05;7.30;;;7.00;99.90;;;7.29;74.27;100887.47;5054538;28;20060;-72
2021/05/07 04:10:38;;;;;;;8.30;7.60;;;7.10;99.90;;;7.40;73.42;100896.31;5053167;28;20053;-72
2021/05/07 04:15:53;;;;;;;8.43;7.73;;;7.20;99.90;;;7.34;73.40;100911.19;5054492;28;20505;-72
2021/05/07 04:18:20;;;;;;;8.35;7.32;;;7.10;99.90;;;7.37;73.29;100912.09;5054330;28;20041;-73
2021/05/07 04:20:48;;;;;;;7.70;7.10;;;7.10;99.90;;;7.32;73.58;100926.94;5054215;28;20097;-73
2021/05/07 04:23:15;;;;;;;8.00;7.40;;;7.10;99.90;;;7.40;73.43;100933.16;5054214;28;20111;-72
2021/05/07 04:25:43;;;;;;;8.40;7.67;;;7.10;99.90;;;7.27;73.67;100932.19;5054505;28;20476;-72
2021/05/07 04:28:11;;;;;;;8.33;7.63;;;7.10;99.90;;;7.06;73.98;100916.19;5054237;28;20456;-73
2021/05/07 04:30:39;;;;;;;8.93;8.13;;;7.00;99.90;;;7.18;73.63;100912.78;5052893;28;20075;-73
2021/05/07 04:33:06;;;;;;;8.95;7.35;;;7.10;99.90;;;7.33;73.89;100949.75;5054108;28;20383;-73
2021/05/07 04:35:34;;;;;;;8.10;7.30;;;7.10;99.90;;;7.29;73.79;100953.22;5053783;28;20070;-73
2021/05/07 04:38:04;;;;;;;8.27;7.47;;;7.00;99.90;;;7.32;73.58;100951.50;5054100;28;20126;-72
2021/05/07 04:40:32;;;;;;;8.80;7.87;;;7.00;99.90;;;7.38;73.82;100955.03;5053905;28;20041;-72
2021/05/07 04:43:01;;;;;;;7.63;7.00;;;7.10;99.90;;;7.27;73.61;100958.47;5054198;28;20045;-72
2021/05/07 04:45:30;;;;;;;7.45;6.82;;;7.10;99.90;;;7.35;73.36;100961.19;5052587;28;20045;-71
2021/05/07 04:47:58;;;;;;;7.95;7.32;;;7.20;99.90;;;7.35;73.25;100969.06;5053642;28;20144;-72
2021/05/07 04:50:25;;;;;;;8.00;7.30;;;7.10;99.90;;;7.10;73.20;100931.09;5053672;28;20124;-74
2021/05/07 04:52:55;;;;;;;6.90;6.40;;;7.10;99.90;;;7.40;72.85;100966.47;5053884;28;20052;-74
2021/05/07 04:55:23;;;;;;;7.93;7.22;;;7.20;99.90;;;7.46;72.52;100977.94;5051510;28;20068;-74
2021/05/07 04:57:52;;;;;;;7.97;7.38;;;7.30;99.90;;;7.61;72.21;100979.81;5053304;28;20421;-74
2021/05/07 05:00:21;;;;;;;7.70;7.10;;;7.40;99.90;;;7.69;71.56;101001.84;5053526;28;20106;-74
2021/05/07 05:02:49;;;;;;;8.55;7.78;;;7.50;99.90;;;7.71;71.64;100982.56;5053725;28;20094;-74
2021/05/07 05:05:18;;;;;;;8.93;8.02;;;7.50;99.90;;;7.79;71.45;100996.69;5053703;28;20040;-74
2021/05/07 05:07:49;;;;;;;8.38;7.68;;;7.60;99.90;;;7.86;71.16;101006.41;5053466;28;20067;-74
2021/05/07 05:10:17;;;;;;;8.05;7.25;;;7.60;99.90;;;7.90;71.29;100994.13;5052057;28;20045;-75
2021/05/07 05:12:44;;;;;;;9.25;8.35;;;7.70;99.90;;;7.75;71.31;100984.38;5053346;28;20045;-74
2021/05/07 05:15:14;;;;;;;8.70;7.90;;;7.70;99.90;;;7.92;70.81;101006.44;5053150;28;20110;-74
2021/05/07 05:17:41;;;;;;;9.00;8.20;;;7.70;99.90;;;7.92;70.81;101011.72;5053358;28;20441;-74
2021/05/07 05:20:11;;;;;;;8.43;7.75;;;7.70;99.90;;;7.91;70.78;101014.34;5053158;28;20052;-75
2021/05/07 05:22:39;;;;;;;8.63;7.97;;;7.70;99.90;;;7.87;70.87;101016.06;5053245;28;20053;-75
2021/05/07 05:25:07;;;;;;;8.40;7.75;;;7.70;99.90;;;8.05;71.03;101026.75;5051652;28;20049;-75
2021/05/07 05:27:36;;;;;;;8.35;7.55;;;7.80;99.90;;;8.13;70.29;101034.72;5052978;28;20127;-75
2021/05/07 05:30:05;;;;;;;9.02;8.20;;;7.90;99.90;;;8.04;70.36;101045.19;5068637;28;20040;-75
2021/05/07 05:32:36;;;;;;;9.30;8.37;;;7.80;99.90;;;8.11;69.95;101037.34;5052914;28;20041;-75
2021/05/07 05:35:04;;;;;;;9.10;8.30;;;7.90;99.90;;;8.02;70.61;101042.53;5053215;28;20291;-75
2021/05/07 05:37:33;;;;;;;9.30;8.40;;;7.80;99.90;;;7.94;70.69;101046.84;5051625;28;20052;-75
2021/05/07 05:40:00;;;;;;;9.25;8.45;;;7.80;99.90;;;7.96;70.93;101052.13;5052792;28;20124;-74
2021/05/07 05:42:31;;;;;;;9.98;8.77;;;7.80;99.90;;;8.00;71.00;101056.56;5052822;28;20056;-74
2021/05/07 05:44:58;;;;;;;10.23;9.35;;;7.80;99.90;;;8.16;71.01;101051.44;5053068;28;20107;-74
2021/05/07 05:47:26;;;;;;;10.18;9.20;;;7.90;99.90;;;8.30;70.83;101059.50;5052640;28;20052;-75
2021/05/07 05:49:57;;;;;;;11.15;10.05;;;8.10;99.90;;;8.60;70.94;101059.69;5052695;28;20401;-75
2021/05/07 05:52:25;;;;;;;10.05;9.20;;;8.30;99.90;;;8.71;70.55;101042.19;5052627;28;20040;-75
2021/05/07 05:54:53;;;;;;;9.75;8.75;;;8.50;99.90;;;8.98;70.42;101073.13;5052575;28;20048;-75
2021/05/07 05:57:21;;;;;;;10.10;9.20;;;8.70;99.90;;;9.21;69.93;101074.13;5052745;28;20057;-75
2021/05/07 05:59:50;;;;;;;10.20;9.30;;;8.90;99.90;;;9.39;69.74;101083.88;5052730;28;20041;-75
2021/05/07 06:02:17;;;;;;;11.50;10.40;;;9.10;99.90;;;9.59;69.69;101080.41;5052594;28;20107;-76
2021/05/07 06:04:46;;;;;;;11.73;10.50;;;9.30;99.90;;;9.84;69.19;101081.34;5052638;28;20095;-75
2021/05/07 06:07:14;;;;;;;11.50;10.40;;;9.60;99.90;;;9.93;68.90;101073.41;5052177;28;20033;-75
2021/05/07 06:09:42;;;;;;;11.10;10.02;;;9.70;99.90;;;10.22;68.55;101089.34;5052572;28;20118;-75
2021/05/07 06:12:10;;;;;;;12.23;10.98;;;9.90;99.90;;;10.44;69.20;101091.09;5052516;28;20437;-75
2021/05/07 06:14:38;;;;;;;11.43;10.38;;;10.10;99.90;;;10.60;68.77;101092.88;5052519;28;20155;-75
2021/05/07 06:17:09;;;;;;;11.65;10.02;;;10.30;99.90;;;10.60;68.39;101071.72;5052529;28;20098;-75
2021/05/07 06:19:37;;;;;;;12.40;10.50;;;10.50;99.90;;;10.94;68.39;101094.56;5052386;28;20033;-76
2021/05/07 06:22:05;;;;;;;11.65;10.55;;;10.60;99.90;;;10.55;67.95;100988.84;5052297;28;20045;-76
2021/05/07 06:24:33;;;;;;;13.10;10.68;;;10.90;99.90;;;11.36;67.91;101104.16;5052457;28;20711;-76
2021/05/07 06:27:00;;;;;;;11.98;10.77;;;11.10;99.90;;;11.47;67.46;101078.50;5052402;28;20045;-76
2021/05/07 06:29:29;;;;;;;12.48;10.68;;;11.30;99.90;;;11.81;67.13;101093.34;5084540;28;20475;-76
2021/05/07 06:31:57;;;;;;;12.00;10.80;;;11.50;99.90;;;11.88;67.26;101100.41;5052292;28;20049;-75
2021/05/07 06:34:24;;;;;;;11.25;10.18;;;11.60;99.90;;;12.05;66.61;101093.22;5067644;28;20524;-75
2021/05/07 06:36:52;;;;;;;11.55;9.65;;;11.80;99.90;;;11.93;64.24;101095.94;5052434;28;20048;-75
2021/05/07 06:39:19;;;;;;;13.55;8.80;;;11.80;99.90;;;11.65;62.57;101116.41;5052075;28;20456;-75
2021/05/07 06:41:47;;;;;;;10.73;8.35;;;11.40;99.90;;;11.29;62.63;101118.28;5052199;28;20041;-79
2021/05/07 06:44:14;;;;;;;9.70;8.73;;;11.10;99.90;;;10.81;62.95;101120.19;5050872;28;20505;-78
2021/05/07 06:46:42;;;;;;;10.13;8.65;;;10.80;99.90;;;10.50;64.40;101122.84;5051983;28;20486;-75
2021/05/07 06:49:10;;;;;;;10.00;9.00;;;10.40;99.90;;;10.25;65.72;101127.25;5052040;28;20048;-74
2021/05/07 06:51:38;;;;;;;9.65;8.27;;;10.10;99.90;;;10.08;64.43;101122.78;5052178;28;20056;-75
2021/05/07 06:54:08;;;;;;;12.95;8.93;;;9.90;99.90;;;9.87;65.91;101118.34;5052228;28;20051;-74
2021/05/07 06:56:36;;;;;;;15.30;8.53;;;9.80;99.90;;;9.72;66.36;101129.75;5052027;28;20065;-75
2021/05/07 06:59:06;;;;;;;11.18;8.98;;;9.60;99.90;;;10.00;67.04;101136.88;5051963;28;20141;-75
2021/05/07 07:01:34;;;;;;;;;;;9.80;99.90;;;10.10;67.72;101142.19;5052428;28;20049;-75
2021/05/07 07:04:04;;;;;;;10.63;7.95;;;9.90;99.90;;;10.06;67.00;101145.69;5051888;28;19921;-77
2021/05/07 07:06:33;;;;;;;12.48;8.68;;;9.90;99.90;;;10.02;66.42;101139.50;5051771;28;20467;-73
2021/05/07 07:09:01;;;;;;;10.60;8.27;;;9.90;99.90;;;10.10;67.53;101158.94;5051673;28;20052;-73
2021/05/07 07:11:45;;;;;;;13.15;9.90;;;9.90;99.90;;;10.17;67.07;101143.97;5050420;28;20067;-74
2021/05/07 07:14:12;;;;;;;11.95;9.07;;;10.00;99.90;;;10.36;66.21;101164.25;5051579;28;20037;-72
2021/05/07 07:16:40;;;;;;;9.95;7.43;;;10.10;99.90;;;10.19;65.42;101158.97;5067033;28;20072;-68
2021/05/07 07:19:09;;;;;;;13.25;8.10;;;10.10;99.90;;;10.04;65.30;101170.31;5051636;28;20498;-73
2021/05/07 07:21:56;;;;;;;8.90;7.68;;;9.90;99.90;;;10.14;64.48;101176.59;5055092;28;20047;-74
2021/05/07 07:24:25;;;;;;;11.50;8.38;;;10.00;99.90;;;10.21;65.38;101181.00;5055337;28;20041;-74
2021/05/07 07:26:53;;;;;;;10.32;8.32;;;10.00;99.90;;;10.28;63.84;101190.69;5055174;28;20857;-69
2021/05/07 07:29:21;;;;;;;10.48;7.95;;;10.20;99.90;;;10.07;65.14;101190.59;5055350;28;20048;-70
2021/05/07 07:31:50;;;;;;;11.48;8.27;;;10.00;99.90;;;10.32;64.75;101188.91;5055249;28;20045;-70
2021/05/07 07:34:19;;;;;;;9.10;7.97;;;10.10;99.90;;;10.33;63.55;101217.16;5055171;28;20128;-70
2021/05/07 07:36:47;;;;;;;9.80;7.30;;;10.20;99.90;;;10.39;63.36;101203.94;5055079;28;20075;-69
2021/05/07 07:39:15;;;;;;;11.82;8.38;;;10.20;99.90;;;10.41;64.96;101204.81;5054895;28;20120;-70
2021/05/07 07:41:42;;;;;;;11.95;8.98;;;10.20;99.90;;;10.63;63.87;101212.78;5055113;28;20416;-70
2021/05/07 07:44:10;;;;;;;11.07;7.88;;;10.40;99.90;;;10.83;63.82;101218.97;5053758;28;20056;-70
2021/05/07 07:46:37;;;;;;;12.27;8.23;;;10.60;99.90;;;10.93;61.50;101217.19;5055062;28;20498;-70
2021/05/07 07:49:05;;;;;;;9.77;7.63;;;10.70;99.90;;;10.99;61.95;101221.59;5054954;28;20037;-70
2021/05/07 07:51:35;;;;;;;10.60;8.02;;;10.80;99.90;;;10.93;61.02;101227.78;5070415;28;20049;-71
2021/05/07 07:54:04;;;;;;;9.35;8.35;;;10.80;99.90;;;10.97;62.28;101236.59;5054888;28;20577;-71
2021/05/07 07:56:31;;;;;;;9.75;8.13;;;10.80;99.90;;;11.12;62.66;101232.19;5054743;28;20057;-70
2021/05/07 07:58:58;;;;;;;12.23;8.90;;;10.90;99.90;;;11.09;62.36;101237.47;5054801;28;20048;-71
2021/05/07 08:01:26;;;;;;;9.52;8.57;;;10.90;99.90;;;11.20;61.30;101248.94;5054743;28;20045;-71
2021/05/07 08:03:54;;;;;;;10.43;8.85;;;11.10;99.90;;;11.08;59.69;101245.41;5053311;28;20087;-71
2021/05/07 08:06:22;;;;;;;11.48;8.40;;;10.90;99.90;;;11.30;60.41;101239.22;5054776;28;20131;-71
2021/05/07 08:08:51;;;;;;;10.40;7.95;;;11.10;99.90;;;11.54;60.70;101253.31;5054556;28;20087;-71
2021/05/07 08:11:19;;;;;;;8.25;7.45;;;11.30;99.90;;;11.32;57.55;101258.66;5054449;28;20103;-71
2021/05/07 08:13:47;;;;;;;12.60;8.77;;;11.20;99.90;;;11.20;59.89;101264.84;5054487;28;20044;-71
2021/05/07 08:16:14;;;;;;;11.70;9.32;;;11.00;99.90;;;11.32;59.37;101266.59;5054420;28;20040;-71
2021/05/07 08:18:44;;;;;;;16.60;8.38;;;11.10;99.90;;;11.41;59.15;101266.56;5054204;28;20099;-70
2021/05/07 08:21:11;;;;;;;10.65;8.35;;;11.20;99.90;;;11.12;59.00;101274.53;5054092;28;20056;-71
2021/05/07 08:23:39;;;;;;;10.52;9.63;;;11.00;99.90;;;11.16;60.53;101273.66;5054075;28;20053;-71
2021/05/07 08:26:07;;;;;;;10.50;9.35;;;11.00;99.90;;;11.16;60.44;101264.84;5052936;28;20053;-71
2021/05/07 08:28:35;;;;;;;10.18;8.95;;;11.10;99.90;;;11.28;58.92;101272.78;5052871;28;20079;-71
2021/05/07 08:31:03;;;;;;;10.30;7.93;;;11.10;99.90;;;11.23;57.70;101272.75;5053927;28;20371;-71
2021/05/07 08:33:30;;;;;;;12.90;9.48;;;11.10;99.90;;;11.13;58.27;101286.03;5053943;28;20450;-71
2021/05/07 08:35:57;;;;;;;13.23;9.65;;;11.00;99.90;;;11.09;59.36;101295.72;5054101;28;20045;-71
2021/05/07 08:38:25;;;;;;;12.75;11.30;;;10.90;99.90;;;11.11;58.97;101299.25;5053924;28;20045;-71
2021/05/07 08:40:52;;;;;;;13.93;10.07;;;10.90;99.90;;;11.10;58.85;101297.50;5052400;28;20418;-70
2021/05/07 08:43:21;;;;;;;11.38;9.77;;;10.90;99.90;;;11.26;59.26;101307.22;5053697;28;20061;-71
2021/05/07 08:45:50;;;;;;;12.15;9.35;;;11.00;99.90;;;11.34;57.32;101310.72;5053613;28;20204;-70
2021/05/07 08:48:18;;;;;;;12.47;9.57;;;11.10;99.90;;;11.19;57.99;101302.78;5053917;28;20049;-70
2021/05/07 08:50:48;;;;;;;11.05;9.95;;;11.10;99.90;;;11.32;57.92;101320.44;5053611;28;20291;-71
2021/05/07 08:53:17;;;;;;;13.73;9.47;;;11.10;99.90;;;10.95;58.37;101215.44;5053725;28;20144;-71
2021/05/07 08:55:44;;;;;;;11.52;10.13;;;11.30;99.90;;;12.02;59.19;101329.16;5053574;28;20116;-71
2021/05/07 08:58:13;;;;;;;13.32;10.05;;;11.80;99.90;;;11.85;58.28;101335.41;5053282;28;20462;-70
2021/05/07 09:00:41;;;;;;;10.77;8.95;;;11.70;99.90;;;11.83;56.31;101338.06;5053475;28;20063;-71
2021/05/07 09:03:13;;;;;;;9.02;8.13;;;11.70;99.90;;;11.87;54.01;101331.88;5053631;28;20056;-71
2021/05/07 09:05:42;;;;;;;12.25;9.10;;;11.70;99.90;;;11.98;56.07;101343.31;5068890;28;20418;-71
2021/05/07 09:08:10;;;;;;;12.23;8.73;;;11.80;99.90;;;12.19;55.57;101343.28;5053423;28;20142;-71
2021/05/07 09:10:40;;;;;;;12.25;8.00;;;12.00;99.90;;;12.02;55.72;101358.34;5053182;28;20073;-70
2021/05/07 09:13:10;;;;;;;11.48;8.95;;;11.90;99.90;;;11.85;56.59;101348.66;5052249;28;20445;-71
2021/05/07 09:15:42;;;;;;;9.40;8.40;;;11.70;99.90;;;11.93;56.38;101354.81;5053466;28;20041;-70
2021/05/07 09:18:10;;;;;;;16.40;9.05;;;11.70;99.90;;;11.92;55.30;101361.03;5053189;28;20045;-70
2021/05/07 09:20:42;;;;;;;10.57;8.50;;;11.80;99.90;;;12.27;55.95;101343.25;5053023;28;20061;-70
2021/05/07 09:23:12;;;;;;;13.38;8.15;;;12.10;99.90;;;12.46;55.69;101382.09;5053041;28;20060;-70
2021/05/07 09:25:41;;;;;;;11.43;8.15;;;12.30;99.90;;;12.10;52.24;101361.00;5052778;28;20049;-71
2021/05/07 09:28:10;;;;;;;10.32;8.20;;;12.10;99.90;;;12.15;53.64;101383.97;5051871;28;20053;-71
2021/05/07 09:30:38;;;;;;;10.25;8.10;;;12.00;99.90;;;12.21;53.86;101381.28;5051660;28;20053;-71
2021/05/07 09:33:09;;;;;;;9.23;7.45;;;12.10;99.90;;;12.12;53.69;101380.41;5068379;28;20037;-70
2021/05/07 09:35:38;;;;;;;7.47;6.75;;;12.00;99.90;;;12.09;53.49;101386.63;5052905;28;20089;-71
2021/05/07 09:38:07;;;;;;;6.60;6.00;;;12.00;99.90;;;12.00;50.37;101385.75;5052821;28;20452;-71
2021/05/07 09:40:37;;;;;;;5.78;5.13;;;11.80;99.90;;;12.03;46.11;101391.94;5052715;28;20045;-70
2021/05/07 09:43:08;;;;;;;8.15;5.97;;;11.80;99.90;;;12.30;47.25;101396.28;5052396;28;20087;-71
2021/05/07 09:45:38;;;;;;;7.18;5.32;;;12.00;99.90;;;12.32;46.84;101397.16;5052792;28;20040;-71
2021/05/07 09:48:19;;;;;;;7.75;5.82;;;12.10;99.90;;;12.44;47.61;101407.75;5052718;28;20029;-71
2021/05/07 09:50:48;;;;;;;10.88;7.50;;;12.20;99.90;;;12.16;50.28;101313.22;5052861;28;20052;-71
2021/05/07 09:53:20;;;;;;;10.13;7.65;;;12.50;99.90;;;12.74;51.79;101418.22;5051529;28;20098;-71
2021/05/07 09:55:49;;;;;;;8.85;7.80;;;12.60;99.90;;;12.81;52.68;101414.66;5051337;28;20059;-69
2021/05/07 09:58:17;;;;;;;10.15;7.95;;;12.60;99.90;;;13.07;53.03;101422.50;5052421;28;20053;-64
2021/05/07 10:00:46;;;;;;;10.52;7.60;;;12.80;99.90;;;13.44;52.14;101422.28;5052261;28;20049;-65
2021/05/07 10:03:13;;;;;;;8.88;7.97;;;13.30;99.90;;;13.40;51.25;101423.19;5052679;28;20049;-64
2021/05/07 10:05:42;;;;;;;9.65;7.40;;;13.40;99.90;;;13.14;52.48;101424.25;5052674;28;20044;-66
2021/05/07 10:08:10;;;;;;;9.07;7.97;;;13.10;99.90;;;13.36;52.45;101423.22;5052495;28;20128;-66
2021/05/07 10:10:41;;;;;;;8.98;8.05;;;13.20;99.90;;;13.76;51.81;101430.00;5052440;28;20049;-64
2021/05/07 10:13:13;;;;;;;8.57;7.57;;;13.60;99.90;;;13.87;50.11;101443.19;5052423;28;20148;-66
2021/05/07 10:15:42;;;;;;;9.65;8.75;;;13.80;99.90;;;13.96;48.54;101446.66;5052649;28;20449;-65
2021/05/07 10:18:12;;;;;;;9.43;8.15;;;13.80;99.90;;;14.05;50.15;101445.72;5051240;28;20045;-63
2021/05/07 10:20:42;;;;;;;10.52;8.30;;;13.90;99.90;;;13.62;51.10;101446.94;5052195;28;20068;-64
2021/05/07 10:23:16;;;;;;;10.07;7.90;;;13.60;99.90;;;13.59;51.51;101437.22;5052396;28;20049;-64
2021/05/07 10:25:59;;;;;;;13.50;8.48;;;13.50;99.90;;;13.90;50.30;101459.16;5052144;28;20472;-64